sensor_id;sensor_type;location;lat;lon;timestamp;temperature;humidity
8402;DHT22;4238;48.404;9.498;2024-03-06T05:00:52;4.70;99.90
8402;DHT22;4238;48.404;9.498;2024-03-06T05:03:18;4.80;99.90
8402;DHT22;4238;48.404;9.498;2024-03-06T05:05:45;4.90;99.90
8402;DHT22;4238;48.404;9.498;2024-03-06T05:08:13;4.90;99.90
8402;DHT22;4238;48.404;9.498;2024-03-06T05:10:40;4.90;99.90
8402;DHT22;4238;48.404;9.498;2024-03-06T05:13:07;4.90;99.90
8402;DHT22;4238;48.404;9.498;2024-03-06T05:15:34;4.80;99.90
8402;DHT22;4238;48.404;9.498;2024-03-06T05:18:02;4.80;99.90
8402;DHT22;4238;48.404;9.498;2024-03-06T05:20:29;4.70;99.90
8402;DHT22;4238;48.404;9.498;2024-03-06T05:22:57;4.80;99.90
8402;DHT22;4238;48.404;9.498;2024-03-06T05:25:24;4.80;99.90
8402;DHT22;4238;48.404;9.498;2024-03-06T05:27:51;4.90;99.90
8402;DHT22;4238;48.404;9.498;2024-03-06T05:30:18;4.80;99.90
8402;DHT22;4238;48.404;9.498;2024-03-06T05:32:44;4.80;99.90
8402;DHT22;4238;48.404;9.498;2024-03-06T05:35:13;4.90;99.90
8402;DHT22;4238;48.404;9.498;2024-03-06T05:37:41;4.90;99.90
8402;DHT22;4238;48.404;9.498;2024-03-06T05:40:09;4.90;99.90
8402;DHT22;4238;48.404;9.498;2024-03-06T05:42:36;4.90;99.90
8402;DHT22;4238;48.404;9.498;2024-03-06T05:45:03;4.90;99.90
8402;DHT22;4238;48.404;9.498;2024-03-06T05:47:31;5.00;99.90
8402;DHT22;4238;48.404;9.498;2024-03-06T05:49:59;4.90;99.90
8402;DHT22;4238;48.404;9.498;2024-03-06T05:52:27;4.90;99.90
8402;DHT22;4238;48.404;9.498;2024-03-06T05:54:54;4.90;99.90
8402;DHT22;4238;48.404;9.498;2024-03-06T05:57:21;4.90;99.90
8402;DHT22;4238;48.404;9.498;2024-03-06T05:59:47;4.90;99.90
8402;DHT22;4238;48.404;9.498;2024-03-06T06:02:14;4.70;99.90
8402;DHT22;4238;48.404;9.498;2024-03-06T06:04:41;4.70;99.90
8402;DHT22;4238;48.404;9.498;2024-03-06T06:07:08;4.70;99.90
8402;DHT22;4238;48.404;9.498;2024-03-06T06:09:36;4.70;99.90
8402;DHT22;4238;48.404;9.498;2024-03-06T06:12:04;4.80;99.90
8402;DHT22;4238;48.404;9.498;2024-03-06T06:14:30;4.80;99.90
8402;DHT22;4238;48.404;9.498;2024-03-06T06:16:57;4.80;99.90
8402;DHT22;4238;48.404;9.498;2024-03-06T06:19:24;4.80;99.90
8402;DHT22;4238;48.404;9.498;2024-03-06T06:21:51;4.80;99.90
8402;DHT22;4238;48.404;9.498;2024-03-06T06:24:18;4.80;99.90
8402;DHT22;4238;48.404;9.498;2024-03-06T06:26:47;4.70;99.90
8402;DHT22;4238;48.404;9.498;2024-03-06T06:29:14;4.70;99.90
8402;DHT22;4238;48.404;9.498;2024-03-06T06:31:40;4.70;99.90
8402;DHT22;4238;48.404;9.498;2024-03-06T06:34:07;4.60;99.90
8402;DHT22;4238;48.404;9.498;2024-03-06T06:36:34;4.60;99.90
8402;DHT22;4238;48.404;9.498;2024-03-06T06:39:03;4.60;99.90
8402;DHT22;4238;48.404;9.498;2024-03-06T06:41:31;4.60;99.90
8402;DHT22;4238;48.404;9.498;2024-03-06T06:43:59;4.60;99.90
8402;DHT22;4238;48.404;9.498;2024-03-06T06:46:28;4.50;99.90
8402;DHT22;4238;48.404;9.498;2024-03-06T06:48:55;4.40;99.90
8402;DHT22;4238;48.404;9.498;2024-03-06T06:51:21;4.40;99.90
8402;DHT22;4238;48.404;9.498;2024-03-06T06:53:49;4.30;99.90
8402;DHT22;4238;48.404;9.498;2024-03-06T06:56:16;4.00;99.90
8402;DHT22;4238;48.404;9.498;2024-03-06T06:58:42;3.90;99.90
8402;DHT22;4238;48.404;9.498;2024-03-06T07:01:11;4.00;99.90
8402;DHT22;4238;48.404;9.498;2024-03-06T07:03:38;4.10;99.90
8402;DHT22;4238;48.404;9.498;2024-03-06T07:06:05;4.00;99.90
8402;DHT22;4238;48.404;9.498;2024-03-06T07:08:32;4.00;99.90
8402;DHT22;4238;48.404;9.498;2024-03-06T07:10:59;3.90;99.90
8402;DHT22;4238;48.404;9.498;2024-03-06T07:13:26;3.90;99.90
8402;DHT22;4238;48.404;9.498;2024-03-06T07:15:53;4.00;99.90
8402;DHT22;4238;48.404;9.498;2024-03-06T07:18:21;4.10;99.90
8402;DHT22;4238;48.404;9.498;2024-03-06T07:20:47;4.20;99.90
8402;DHT22;4238;48.404;9.498;2024-03-06T07:23:14;4.30;99.90
8402;DHT22;4238;48.404;9.498;2024-03-06T07:25:41;4.40;99.90
8402;DHT22;4238;48.404;9.498;2024-03-06T07:28:08;4.40;99.90
8402;DHT22;4238;48.404;9.498;2024-03-06T07:30:35;4.50;99.90
8402;DHT22;4238;48.404;9.498;2024-03-06T07:33:02;4.30;99.90
8402;DHT22;4238;48.404;9.498;2024-03-06T07:35:31;4.40;99.90
8402;DHT22;4238;48.404;9.498;2024-03-06T07:37:58;4.40;99.90
8402;DHT22;4238;48.404;9.498;2024-03-06T07:40:25;4.30;99.90
8402;DHT22;4238;48.404;9.498;2024-03-06T07:42:51;4.30;99.90
8402;DHT22;4238;48.404;9.498;2024-03-06T07:45:18;4.20;99.90
8402;DHT22;4238;48.404;9.498;2024-03-06T07:47:46;3.90;99.90
8402;DHT22;4238;48.404;9.498;2024-03-06T07:50:13;3.80;99.90
8402;DHT22;4238;48.404;9.498;2024-03-06T07:52:45;3.80;99.90
8402;DHT22;4238;48.404;9.498;2024-03-06T07:55:12;3.60;99.90
8402;DHT22;4238;48.404;9.498;2024-03-06T07:57:39;3.70;99.90
8402;DHT22;4238;48.404;9.498;2024-03-06T08:00:07;3.90;99.90
8402;DHT22;4238;48.404;9.498;2024-03-06T08:02:40;3.90;99.90
8402;DHT22;4238;48.404;9.498;2024-03-06T08:05:08;3.90;99.90
8402;DHT22;4238;48.404;9.498;2024-03-06T08:07:37;3.90;99.90
8402;DHT22;4238;48.404;9.498;2024-03-06T08:10:09;4.10;99.90
8402;DHT22;4238;48.404;9.498;2024-03-06T08:12:39;4.20;99.90
8402;DHT22;4238;48.404;9.498;2024-03-06T08:15:07;4.20;99.90
8402;DHT22;4238;48.404;9.498;2024-03-06T08:17:35;4.10;99.90
8402;DHT22;4238;48.404;9.498;2024-03-06T08:20:02;4.00;99.90
8402;DHT22;4238;48.404;9.498;2024-03-06T08:22:31;4.10;99.90
8402;DHT22;4238;48.404;9.498;2024-03-06T08:25:05;4.30;99.90
8402;DHT22;4238;48.404;9.498;2024-03-06T08:27:34;4.30;99.90
8402;DHT22;4238;48.404;9.498;2024-03-06T08:30:01;4.20;99.90
8402;DHT22;4238;48.404;9.498;2024-03-06T08:32:30;4.30;99.90
8402;DHT22;4238;48.404;9.498;2024-03-06T08:34:57;4.10;99.90
8402;DHT22;4238;48.404;9.498;2024-03-06T08:37:23;4.10;99.90
8402;DHT22;4238;48.404;9.498;2024-03-06T08:39:51;4.10;99.90
8402;DHT22;4238;48.404;9.498;2024-03-06T08:42:17;4.00;99.90
8402;DHT22;4238;48.404;9.498;2024-03-06T08:44:45;3.70;99.90
8402;DHT22;4238;48.404;9.498;2024-03-06T08:47:12;3.90;99.90
8402;DHT22;4238;48.404;9.498;2024-03-06T08:49:39;4.00;99.90
8402;DHT22;4238;48.404;9.498;2024-03-06T08:52:06;4.10;99.90
8402;DHT22;4238;48.404;9.498;2024-03-06T08:54:37;4.00;99.90
8402;DHT22;4238;48.404;9.498;2024-03-06T08:57:04;4.20;99.90
8402;DHT22;4238;48.404;9.498;2024-03-06T08:59:31;4.20;99.90
8402;DHT22;4238;48.404;9.498;2024-03-06T09:02:12;4.00;99.90
8402;DHT22;4238;48.404;9.498;2024-03-06T09:04:39;4.10;99.90
8402;DHT22;4238;48.404;9.498;2024-03-06T09:07:06;4.10;99.90
8402;DHT22;4238;48.404;9.498;2024-03-06T09:09:33;4.20;99.90
8402;DHT22;4238;48.404;9.498;2024-03-06T09:12:00;4.30;99.90
8402;DHT22;4238;48.404;9.498;2024-03-06T09:14:27;4.20;99.90
8402;DHT22;4238;48.404;9.498;2024-03-06T09:16:54;4.30;99.90
8402;DHT22;4238;48.404;9.498;2024-03-06T09:19:22;4.20;99.90
8402;DHT22;4238;48.404;9.498;2024-03-06T09:21:49;4.10;99.90
8402;DHT22;4238;48.404;9.498;2024-03-06T09:24:15;4.00;99.90
8402;DHT22;4238;48.404;9.498;2024-03-06T09:26:43;4.00;99.90
8402;DHT22;4238;48.404;9.498;2024-03-06T09:29:10;4.00;99.90
8402;DHT22;4238;48.404;9.498;2024-03-06T09:31:37;4.10;99.90
8402;DHT22;4238;48.404;9.498;2024-03-06T09:34:03;4.20;99.90
8402;DHT22;4238;48.404;9.498;2024-03-06T09:36:32;4.30;99.90
8402;DHT22;4238;48.404;9.498;2024-03-06T09:39:00;4.20;99.90
8402;DHT22;4238;48.404;9.498;2024-03-06T09:41:26;4.30;99.90
8402;DHT22;4238;48.404;9.498;2024-03-06T09:43:53;4.20;99.90
8402;DHT22;4238;48.404;9.498;2024-03-06T09:46:21;4.30;99.90
8402;DHT22;4238;48.404;9.498;2024-03-06T09:48:49;4.20;99.90
8402;DHT22;4238;48.404;9.498;2024-03-06T09:51:17;4.30;99.90
8402;DHT22;4238;48.404;9.498;2024-03-06T09:53:47;4.30;99.90
8402;DHT22;4238;48.404;9.498;2024-03-06T09:56:17;4.30;99.90
8402;DHT22;4238;48.404;9.498;2024-03-06T09:58:45;4.20;99.90
8402;DHT22;4238;48.404;9.498;2024-03-06T10:01:13;4.20;99.90
8402;DHT22;4238;48.404;9.498;2024-03-06T10:03:42;4.10;99.90
8402;DHT22;4238;48.404;9.498;2024-03-06T10:06:09;4.20;99.90
8402;DHT22;4238;48.404;9.498;2024-03-06T10:08:36;4.30;99.90
8402;DHT22;4238;48.404;9.498;2024-03-06T10:11:05;4.40;99.90
8402;DHT22;4238;48.404;9.498;2024-03-06T10:13:32;4.40;99.90
8402;DHT22;4238;48.404;9.498;2024-03-06T10:16:00;4.30;99.90
8402;DHT22;4238;48.404;9.498;2024-03-06T10:18:28;4.40;99.90
8402;DHT22;4238;48.404;9.498;2024-03-06T10:20:55;4.50;99.90
8402;DHT22;4238;48.404;9.498;2024-03-06T10:23:23;4.30;99.90
8402;DHT22;4238;48.404;9.498;2024-03-06T10:25:51;4.30;99.90
8402;DHT22;4238;48.404;9.498;2024-03-06T10:28:21;4.20;99.90
8402;DHT22;4238;48.404;9.498;2024-03-06T10:30:49;4.30;99.90
8402;DHT22;4238;48.404;9.498;2024-03-06T10:33:18;4.30;99.90
8402;DHT22;4238;48.404;9.498;2024-03-06T10:35:46;4.40;99.90
8402;DHT22;4238;48.404;9.498;2024-03-06T10:38:14;4.50;99.90
8402;DHT22;4238;48.404;9.498;2024-03-06T10:40:42;4.40;99.90
8402;DHT22;4238;48.404;9.498;2024-03-06T10:43:10;4.50;99.90
8402;DHT22;4238;48.404;9.498;2024-03-06T10:45:46;4.50;99.90
8402;DHT22;4238;48.404;9.498;2024-03-06T10:48:14;4.50;99.90
8402;DHT22;4238;48.404;9.498;2024-03-06T10:50:43;4.50;99.90
8402;DHT22;4238;48.404;9.498;2024-03-06T10:53:11;4.50;99.90
8402;DHT22;4238;48.404;9.498;2024-03-06T10:55:38;4.40;99.90
8402;DHT22;4238;48.404;9.498;2024-03-06T10:58:06;4.50;99.90
8402;DHT22;4238;48.404;9.498;2024-03-06T11:00:36;4.40;99.90
8402;DHT22;4238;48.404;9.498;2024-03-06T11:03:06;4.30;99.90
8402;DHT22;4238;48.404;9.498;2024-03-06T11:05:35;4.30;99.90
8402;DHT22;4238;48.404;9.498;2024-03-06T11:08:02;4.30;99.90
8402;DHT22;4238;48.404;9.498;2024-03-06T11:10:31;4.20;99.90
8402;DHT22;4238;48.404;9.498;2024-03-06T11:12:59;4.20;99.90
8402;DHT22;4238;48.404;9.498;2024-03-06T11:15:27;4.30;99.90
8402;DHT22;4238;48.404;9.498;2024-03-06T11:17:54;4.40;99.90
8402;DHT22;4238;48.404;9.498;2024-03-06T11:20:22;4.30;99.90
8402;DHT22;4238;48.404;9.498;2024-03-06T11:23:04;4.20;99.90
8402;DHT22;4238;48.404;9.498;2024-03-06T11:28:40;4.30;99.90
8402;DHT22;4238;48.404;9.498;2024-03-06T11:31:16;4.50;99.90
8402;DHT22;4238;48.404;9.498;2024-03-06T11:33:46;4.50;99.90
8402;DHT22;4238;48.404;9.498;2024-03-06T11:36:19;4.60;99.90
8402;DHT22;4238;48.404;9.498;2024-03-06T11:38:47;4.80;99.90
8402;DHT22;4238;48.404;9.498;2024-03-06T11:41:15;4.70;99.90
8402;DHT22;4238;48.404;9.498;2024-03-06T11:43:43;4.70;99.90
8402;DHT22;4238;48.404;9.498;2024-03-06T11:46:10;4.60;99.90
8402;DHT22;4238;48.404;9.498;2024-03-06T11:48:37;4.50;99.90
8402;DHT22;4238;48.404;9.498;2024-03-06T11:51:04;4.60;99.90
8402;DHT22;4238;48.404;9.498;2024-03-06T11:53:34;4.60;99.90
8402;DHT22;4238;48.404;9.498;2024-03-06T11:56:05;4.80;99.90
8402;DHT22;4238;48.404;9.498;2024-03-06T11:58:33;4.80;99.90
8402;DHT22;4238;48.404;9.498;2024-03-06T12:01:00;4.80;99.90
8402;DHT22;4238;48.404;9.498;2024-03-06T12:03:27;4.60;99.90
8402;DHT22;4238;48.404;9.498;2024-03-06T12:05:54;4.70;99.90
8402;DHT22;4238;48.404;9.498;2024-03-06T12:08:22;4.60;99.90
8402;DHT22;4238;48.404;9.498;2024-03-06T12:10:50;4.50;99.90
8402;DHT22;4238;48.404;9.498;2024-03-06T12:13:20;4.30;99.90
8402;DHT22;4238;48.404;9.498;2024-03-06T12:15:48;4.20;99.90
8402;DHT22;4238;48.404;9.498;2024-03-06T12:18:17;4.20;99.90
8402;DHT22;4238;48.404;9.498;2024-03-06T12:20:44;4.30;99.90
8402;DHT22;4238;48.404;9.498;2024-03-06T12:23:19;4.40;99.90
8402;DHT22;4238;48.404;9.498;2024-03-06T12:25:47;4.40;99.90
8402;DHT22;4238;48.404;9.498;2024-03-06T12:28:15;4.60;99.90
8402;DHT22;4238;48.404;9.498;2024-03-06T12:30:43;4.70;99.90
8402;DHT22;4238;48.404;9.498;2024-03-06T12:33:10;4.60;99.90
8402;DHT22;4238;48.404;9.498;2024-03-06T12:35:43;4.60;99.90
8402;DHT22;4238;48.404;9.498;2024-03-06T12:38:13;4.60;99.90
8402;DHT22;4238;48.404;9.498;2024-03-06T12:40:40;4.60;99.90
8402;DHT22;4238;48.404;9.498;2024-03-06T12:43:08;4.70;99.90
8402;DHT22;4238;48.404;9.498;2024-03-06T12:45:37;4.70;99.90
8402;DHT22;4238;48.404;9.498;2024-03-06T12:48:05;4.70;99.90
8402;DHT22;4238;48.404;9.498;2024-03-06T12:50:32;4.70;99.90
8402;DHT22;4238;48.404;9.498;2024-03-06T12:52:59;4.70;99.90
8402;DHT22;4238;48.404;9.498;2024-03-06T12:55:26;4.70;99.90
8402;DHT22;4238;48.404;9.498;2024-03-06T12:57:53;4.80;99.90
8402;DHT22;4238;48.404;9.498;2024-03-06T13:00:20;4.80;99.90
8402;DHT22;4238;48.404;9.498;2024-03-06T13:02:50;4.80;99.90
8402;DHT22;4238;48.404;9.498;2024-03-06T13:05:17;4.90;99.90
8402;DHT22;4238;48.404;9.498;2024-03-06T13:07:45;4.90;99.90
8402;DHT22;4238;48.404;9.498;2024-03-06T13:10:12;4.70;99.90
8402;DHT22;4238;48.404;9.498;2024-03-06T13:12:39;4.90;99.90
8402;DHT22;4238;48.404;9.498;2024-03-06T13:15:06;4.70;99.90
8402;DHT22;4238;48.404;9.498;2024-03-06T13:17:34;4.80;99.90
8402;DHT22;4238;48.404;9.498;2024-03-06T13:20:02;4.80;99.90
8402;DHT22;4238;48.404;9.498;2024-03-06T13:22:30;4.90;99.90
8402;DHT22;4238;48.404;9.498;2024-03-06T13:24:57;4.90;99.90
8402;DHT22;4238;48.404;9.498;2024-03-06T13:27:24;5.00;99.90
8402;DHT22;4238;48.404;9.498;2024-03-06T13:29:51;5.00;99.90
8402;DHT22;4238;48.404;9.498;2024-03-06T13:32:18;5.00;99.90
8402;DHT22;4238;48.404;9.498;2024-03-06T13:34:45;5.00;99.90
8402;DHT22;4238;48.404;9.498;2024-03-06T13:37:14;5.10;99.90
8402;DHT22;4238;48.404;9.498;2024-03-06T13:39:42;5.00;99.90
8402;DHT22;4238;48.404;9.498;2024-03-06T13:42:08;4.90;99.90
8402;DHT22;4238;48.404;9.498;2024-03-06T13:44:36;5.10;99.90
8402;DHT22;4238;48.404;9.498;2024-03-06T13:47:03;5.20;99.90
8402;DHT22;4238;48.404;9.498;2024-03-06T13:49:38;5.20;99.90
8402;DHT22;4238;48.404;9.498;2024-03-06T13:52:05;5.00;99.90
8402;DHT22;4238;48.404;9.498;2024-03-06T13:54:37;4.80;99.90
8402;DHT22;4238;48.404;9.498;2024-03-06T13:57:05;4.80;99.90
8402;DHT22;4238;48.404;9.498;2024-03-06T13:59:33;4.90;99.90
8402;DHT22;4238;48.404;9.498;2024-03-06T14:02:00;5.00;99.90
8402;DHT22;4238;48.404;9.498;2024-03-06T14:04:28;5.10;99.90
8402;DHT22;4238;48.404;9.498;2024-03-06T14:06:56;5.20;99.90
8402;DHT22;4238;48.404;9.498;2024-03-06T14:09:24;5.10;99.90
8402;DHT22;4238;48.404;9.498;2024-03-06T14:11:53;5.00;99.90
8402;DHT22;4238;48.404;9.498;2024-03-06T14:14:20;4.90;99.90
8402;DHT22;4238;48.404;9.498;2024-03-06T14:16:47;5.00;99.90
8402;DHT22;4238;48.404;9.498;2024-03-06T14:19:14;5.20;99.90
8402;DHT22;4238;48.404;9.498;2024-03-06T14:21:41;5.20;99.90
8402;DHT22;4238;48.404;9.498;2024-03-06T14:24:08;5.20;99.90
8402;DHT22;4238;48.404;9.498;2024-03-06T14:26:36;5.30;99.90
8402;DHT22;4238;48.404;9.498;2024-03-06T14:29:08;5.20;99.90
8402;DHT22;4238;48.404;9.498;2024-03-06T14:31:35;5.30;99.90
8402;DHT22;4238;48.404;9.498;2024-03-06T14:34:02;5.10;99.90
8402;DHT22;4238;48.404;9.498;2024-03-06T14:36:30;5.20;99.90
8402;DHT22;4238;48.404;9.498;2024-03-06T14:38:58;5.40;99.90
8402;DHT22;4238;48.404;9.498;2024-03-06T14:41:25;5.40;99.90
8402;DHT22;4238;48.404;9.498;2024-03-06T14:43:52;5.40;99.90
8402;DHT22;4238;48.404;9.498;2024-03-06T14:46:20;5.40;99.90
8402;DHT22;4238;48.404;9.498;2024-03-06T14:48:48;5.20;99.90
8402;DHT22;4238;48.404;9.498;2024-03-06T14:51:15;5.10;99.90
8402;DHT22;4238;48.404;9.498;2024-03-06T14:53:42;5.20;99.90
8402;DHT22;4238;48.404;9.498;2024-03-06T14:56:09;5.30;99.90
8402;DHT22;4238;48.404;9.498;2024-03-06T14:58:36;5.40;99.90
8402;DHT22;4238;48.404;9.498;2024-03-06T15:01:06;5.40;99.90
8402;DHT22;4238;48.404;9.498;2024-03-06T15:03:35;5.50;99.90
8402;DHT22;4238;48.404;9.498;2024-03-06T15:06:02;5.40;99.90
8402;DHT22;4238;48.404;9.498;2024-03-06T15:08:29;5.50;99.90
8402;DHT22;4238;48.404;9.498;2024-03-06T15:10:56;5.50;99.90
8402;DHT22;4238;48.404;9.498;2024-03-06T15:13:23;5.50;99.90
8402;DHT22;4238;48.404;9.498;2024-03-06T15:15:50;5.40;99.90
8402;DHT22;4238;48.404;9.498;2024-03-06T15:18:18;5.50;99.90
8402;DHT22;4238;48.404;9.498;2024-03-06T15:20:47;5.40;99.90
8402;DHT22;4238;48.404;9.498;2024-03-06T15:23:14;5.50;99.90
8402;DHT22;4238;48.404;9.498;2024-03-06T15:25:42;5.60;99.90
8402;DHT22;4238;48.404;9.498;2024-03-06T15:28:09;5.60;99.90
8402;DHT22;4238;48.404;9.498;2024-03-06T15:30:37;5.60;99.90
8402;DHT22;4238;48.404;9.498;2024-03-06T15:33:04;5.60;99.90
8402;DHT22;4238;48.404;9.498;2024-03-06T15:35:32;5.70;99.90
8402;DHT22;4238;48.404;9.498;2024-03-06T15:38:01;5.60;99.90
8402;DHT22;4238;48.404;9.498;2024-03-06T15:40:29;5.60;99.90
8402;DHT22;4238;48.404;9.498;2024-03-06T15:42:56;5.50;99.90
8402;DHT22;4238;48.404;9.498;2024-03-06T15:45:23;5.60;99.90
8402;DHT22;4238;48.404;9.498;2024-03-06T15:47:52;5.60;99.90
8402;DHT22;4238;48.404;9.498;2024-03-06T15:50:19;5.40;99.90
8402;DHT22;4238;48.404;9.498;2024-03-06T15:52:46;5.60;99.90
8402;DHT22;4238;48.404;9.498;2024-03-06T15:55:16;5.60;99.90
8402;DHT22;4238;48.404;9.498;2024-03-06T15:57:43;5.70;99.90
8402;DHT22;4238;48.404;9.498;2024-03-06T16:00:11;5.60;99.90
8402;DHT22;4238;48.404;9.498;2024-03-06T16:02:43;5.70;99.90
8402;DHT22;4238;48.404;9.498;2024-03-06T16:05:10;5.70;99.90
8402;DHT22;4238;48.404;9.498;2024-03-06T16:07:38;5.80;99.90
8402;DHT22;4238;48.404;9.498;2024-03-06T16:10:06;5.80;99.90
8402;DHT22;4238;48.404;9.498;2024-03-06T16:12:34;5.70;99.90
8402;DHT22;4238;48.404;9.498;2024-03-06T16:15:01;5.80;99.90
8402;DHT22;4238;48.404;9.498;2024-03-06T16:17:29;5.80;99.90
8402;DHT22;4238;48.404;9.498;2024-03-06T16:19:56;5.90;99.90
8402;DHT22;4238;48.404;9.498;2024-03-06T16:22:23;5.90;99.90
8402;DHT22;4238;48.404;9.498;2024-03-06T16:24:50;5.80;99.90
8402;DHT22;4238;48.404;9.498;2024-03-06T16:27:18;5.80;99.90
8402;DHT22;4238;48.404;9.498;2024-03-06T16:29:47;5.70;99.90
8402;DHT22;4238;48.404;9.498;2024-03-06T16:32:14;5.70;99.90
8402;DHT22;4238;48.404;9.498;2024-03-06T16:34:41;5.60;99.90
8402;DHT22;4238;48.404;9.498;2024-03-06T16:37:08;5.60;99.90
8402;DHT22;4238;48.404;9.498;2024-03-06T16:39:35;5.60;99.90
8402;DHT22;4238;48.404;9.498;2024-03-06T16:42:02;5.70;99.90
8402;DHT22;4238;48.404;9.498;2024-03-06T16:44:29;5.70;99.90
8402;DHT22;4238;48.404;9.498;2024-03-06T16:46:57;5.80;99.90
8402;DHT22;4238;48.404;9.498;2024-03-06T16:49:24;5.90;99.90
8402;DHT22;4238;48.404;9.498;2024-03-06T16:51:52;5.60;99.90
8402;DHT22;4238;48.404;9.498;2024-03-06T16:54:18;5.60;99.90
8402;DHT22;4238;48.404;9.498;2024-03-06T16:56:45;5.60;99.90
8402;DHT22;4238;48.404;9.498;2024-03-06T16:59:12;5.60;99.90
8402;DHT22;4238;48.404;9.498;2024-03-06T17:01:39;5.50;99.90
8402;DHT22;4238;48.404;9.498;2024-03-06T17:04:08;5.40;99.90
8402;DHT22;4238;48.404;9.498;2024-03-06T17:06:35;5.50;99.90
8402;DHT22;4238;48.404;9.498;2024-03-06T17:09:02;5.30;99.90
8402;DHT22;4238;48.404;9.498;2024-03-06T17:11:30;5.40;99.90
8402;DHT22;4238;48.404;9.498;2024-03-06T17:13:58;5.30;99.90
8402;DHT22;4238;48.404;9.498;2024-03-06T17:16:25;5.20;99.90
8402;DHT22;4238;48.404;9.498;2024-03-06T17:18:51;5.20;99.90
8402;DHT22;4238;48.404;9.498;2024-03-06T17:21:20;5.30;99.90
8402;DHT22;4238;48.404;9.498;2024-03-06T17:23:46;5.30;99.90
8402;DHT22;4238;48.404;9.498;2024-03-06T17:26:15;5.10;99.90
8402;DHT22;4238;48.404;9.498;2024-03-06T17:28:42;5.00;99.90
8402;DHT22;4238;48.404;9.498;2024-03-06T17:31:11;5.10;99.90
8402;DHT22;4238;48.404;9.498;2024-03-06T17:33:38;5.20;99.90
8402;DHT22;4238;48.404;9.498;2024-03-06T17:36:05;5.20;99.90
8402;DHT22;4238;48.404;9.498;2024-03-06T17:38:33;5.20;99.90
8402;DHT22;4238;48.404;9.498;2024-03-06T17:41:00;5.20;99.90
8402;DHT22;4238;48.404;9.498;2024-03-06T17:43:27;5.20;99.90
8402;DHT22;4238;48.404;9.498;2024-03-06T17:45:54;5.20;99.90
8402;DHT22;4238;48.404;9.498;2024-03-06T17:48:20;5.20;99.90
8402;DHT22;4238;48.404;9.498;2024-03-06T17:50:47;5.20;99.90
8402;DHT22;4238;48.404;9.498;2024-03-06T17:53:14;5.20;99.90
8402;DHT22;4238;48.404;9.498;2024-03-06T17:55:43;5.20;99.90
8402;DHT22;4238;48.404;9.498;2024-03-06T17:58:10;5.10;99.90
8402;DHT22;4238;48.404;9.498;2024-03-06T18:00:37;5.10;99.90
8402;DHT22;4238;48.404;9.498;2024-03-06T18:03:04;5.10;99.90
8402;DHT22;4238;48.404;9.498;2024-03-06T18:05:31;5.10;99.90
8402;DHT22;4238;48.404;9.498;2024-03-06T18:07:58;5.10;99.90
8402;DHT22;4238;48.404;9.498;2024-03-06T18:10:25;5.10;99.90
8402;DHT22;4238;48.404;9.498;2024-03-06T18:12:53;5.10;99.90
8402;DHT22;4238;48.404;9.498;2024-03-06T18:15:20;5.10;99.90
8402;DHT22;4238;48.404;9.498;2024-03-06T18:17:47;5.10;99.90
8402;DHT22;4238;48.404;9.498;2024-03-06T18:20:14;5.10;99.90
8402;DHT22;4238;48.404;9.498;2024-03-06T18:22:41;5.20;99.90
8402;DHT22;4238;48.404;9.498;2024-03-06T18:25:08;5.20;99.90
8402;DHT22;4238;48.404;9.498;2024-03-06T18:27:35;5.20;99.90
8402;DHT22;4238;48.404;9.498;2024-03-06T18:30:04;5.20;99.90
8402;DHT22;4238;48.404;9.498;2024-03-06T18:32:32;5.10;99.90
8402;DHT22;4238;48.404;9.498;2024-03-06T18:34:59;5.10;99.90
8402;DHT22;4238;48.404;9.498;2024-03-06T18:37:26;5.20;99.90
8402;DHT22;4238;48.404;9.498;2024-03-06T18:39:53;5.10;99.90
8402;DHT22;4238;48.404;9.498;2024-03-06T18:42:20;5.10;99.90
8402;DHT22;4238;48.404;9.498;2024-03-06T18:44:47;5.10;99.90
8402;DHT22;4238;48.404;9.498;2024-03-06T18:47:15;5.10;99.90
8402;DHT22;4238;48.404;9.498;2024-03-06T18:49:42;5.00;99.90
8402;DHT22;4238;48.404;9.498;2024-03-06T18:52:09;5.00;99.90
8402;DHT22;4238;48.404;9.498;2024-03-06T18:54:38;5.10;99.90
8402;DHT22;4238;48.404;9.498;2024-03-06T18:57:05;5.10;99.90
8402;DHT22;4238;48.404;9.498;2024-03-06T18:59:32;5.20;99.90
8402;DHT22;4238;48.404;9.498;2024-03-06T19:01:59;5.20;99.90
8402;DHT22;4238;48.404;9.498;2024-03-06T19:04:27;5.10;99.90
8402;DHT22;4238;48.404;9.498;2024-03-06T19:06:54;5.10;99.90
8402;DHT22;4238;48.404;9.498;2024-03-06T19:09:21;5.00;99.90
8402;DHT22;4238;48.404;9.498;2024-03-06T19:11:47;5.10;99.90
8402;DHT22;4238;48.404;9.498;2024-03-06T19:14:16;5.00;99.90
8402;DHT22;4238;48.404;9.498;2024-03-06T19:16:42;5.00;99.90
8402;DHT22;4238;48.404;9.498;2024-03-06T19:19:09;5.00;99.90
8402;DHT22;4238;48.404;9.498;2024-03-06T19:21:37;5.00;99.90
8402;DHT22;4238;48.404;9.498;2024-03-06T19:24:05;5.00;99.90
8402;DHT22;4238;48.404;9.498;2024-03-06T19:26:32;5.00;99.90
8402;DHT22;4238;48.404;9.498;2024-03-06T19:28:59;5.00;99.90
8402;DHT22;4238;48.404;9.498;2024-03-06T19:31:26;5.00;99.90
8402;DHT22;4238;48.404;9.498;2024-03-06T19:33:53;5.00;99.90
8402;DHT22;4238;48.404;9.498;2024-03-06T19:36:20;5.00;99.90
8402;DHT22;4238;48.404;9.498;2024-03-06T19:38:48;5.10;99.90
8402;DHT22;4238;48.404;9.498;2024-03-06T19:41:15;5.10;99.90
8402;DHT22;4238;48.404;9.498;2024-03-06T19:43:41;5.10;99.90
8402;DHT22;4238;48.404;9.498;2024-03-06T19:46:08;5.10;99.90
8402;DHT22;4238;48.404;9.498;2024-03-06T19:48:35;5.10;99.90
8402;DHT22;4238;48.404;9.498;2024-03-06T19:51:03;5.10;99.90
8402;DHT22;4238;48.404;9.498;2024-03-06T19:53:30;5.10;99.90
8402;DHT22;4238;48.404;9.498;2024-03-06T19:55:59;5.00;99.90
8402;DHT22;4238;48.404;9.498;2024-03-06T19:58:26;5.10;99.90
8402;DHT22;4238;48.404;9.498;2024-03-06T20:00:52;5.20;99.90
8402;DHT22;4238;48.404;9.498;2024-03-06T20:03:19;5.30;99.90
8402;DHT22;4238;48.404;9.498;2024-03-06T20:05:46;5.30;99.90
8402;DHT22;4238;48.404;9.498;2024-03-06T20:08:13;5.20;99.90
8402;DHT22;4238;48.404;9.498;2024-03-06T20:10:41;5.20;99.90
8402;DHT22;4238;48.404;9.498;2024-03-06T20:13:09;5.20;99.90
8402;DHT22;4238;48.404;9.498;2024-03-06T20:15:37;5.20;99.90
8402;DHT22;4238;48.404;9.498;2024-03-06T20:18:04;5.20;99.90
8402;DHT22;4238;48.404;9.498;2024-03-06T20:20:31;5.30;99.90
8402;DHT22;4238;48.404;9.498;2024-03-06T20:22:58;5.30;99.90
8402;DHT22;4238;48.404;9.498;2024-03-06T20:25:32;5.20;99.90
8402;DHT22;4238;48.404;9.498;2024-03-06T20:27:59;5.40;99.90
8402;DHT22;4238;48.404;9.498;2024-03-06T20:30:27;5.30;99.90
8402;DHT22;4238;48.404;9.498;2024-03-06T20:32:54;5.30;99.90
8402;DHT22;4238;48.404;9.498;2024-03-06T20:35:21;5.30;99.90
8402;DHT22;4238;48.404;9.498;2024-03-06T20:37:49;5.30;99.90
8402;DHT22;4238;48.404;9.498;2024-03-06T20:40:16;5.20;99.90
8402;DHT22;4238;48.404;9.498;2024-03-06T20:42:43;5.10;99.90
8402;DHT22;4238;48.404;9.498;2024-03-06T20:45:11;5.10;99.90
8402;DHT22;4238;48.404;9.498;2024-03-06T20:47:40;5.10;99.90
8402;DHT22;4238;48.404;9.498;2024-03-06T20:50:08;5.20;99.90
8402;DHT22;4238;48.404;9.498;2024-03-06T20:52:36;5.20;99.90
8402;DHT22;4238;48.404;9.498;2024-03-06T20:55:03;5.20;99.90
8402;DHT22;4238;48.404;9.498;2024-03-06T20:57:30;5.10;99.90
8402;DHT22;4238;48.404;9.498;2024-03-06T20:59:57;5.10;99.90
8402;DHT22;4238;48.404;9.498;2024-03-06T21:02:24;5.10;99.90
8402;DHT22;4238;48.404;9.498;2024-03-06T21:04:52;5.10;99.90
8402;DHT22;4238;48.404;9.498;2024-03-06T21:07:19;5.20;99.90
8402;DHT22;4238;48.404;9.498;2024-03-06T21:09:46;5.30;99.90
8402;DHT22;4238;48.404;9.498;2024-03-06T21:12:14;5.20;99.90
8402;DHT22;4238;48.404;9.498;2024-03-06T21:14:40;5.20;99.90
8402;DHT22;4238;48.404;9.498;2024-03-06T21:17:07;5.20;99.90
8402;DHT22;4238;48.404;9.498;2024-03-06T21:19:34;5.30;99.90
8402;DHT22;4238;48.404;9.498;2024-03-06T21:22:03;5.30;99.90